Aérodrome de la Montagne Noire

LFMG · Occitanie, França

1 de outubro de 2022

Hora Código Clima Temp. Visibilidade Tecto Vento METAR/SPECI
21:30
V
22 °C 10 km+ - 320° 320° 9 kt METAR LFMP 011930Z AUTO 32009KT CAVOK 22/13 Q1025 NOSIG
21:00
V
22 °C 10 km+ - 310° 310° 7 kt METAR LFMP 011900Z AUTO 31007KT 9999 FEW100 22/13 Q1025 NOSIG
20:30
V
21 °C 10 km+ - 310° 310° 5 kt METAR LFMP 011830Z AUTO 31005KT 280V340 CAVOK 21/12 Q1024 NOSIG
20:00
V
21 °C 10 km+ - Var Var 2 kt METAR LFMP 011800Z AUTO VRB02KT CAVOK 21/12 Q1024 NOSIG
19:30
V
22 °C 10 km+ - 130° 130° 4 kt METAR LFMP 011730Z AUTO 13004KT 090V160 CAVOK 22/13 Q1024 BECMG 32010KT
19:00
V
23 °C 10 km+ - 090° 090° 5 kt METAR LFMP 011700Z AUTO 09005KT CAVOK 23/11 Q1023 BECMG 32010KT
18:30
V
24 °C 10 km+ - 090° 090° 5 kt METAR LFMP 011630Z AUTO 09005KT CAVOK 24/12 Q1023 BECMG 32010KT
18:00
V
25 °C 10 km+ - 090° 090° 6 kt METAR LFMP 011600Z AUTO 09006KT CAVOK 25/11 Q1023 BECMG 32010KT
17:30
V
25 °C 10 km+ - 100° 100° 6 kt METAR LFMP 011530Z AUTO 10006KT 070V140 CAVOK 25/10 Q1023 BECMG 32010KT
17:00
V
26 °C 10 km+ - 080° 080° 7 kt METAR LFMP 011500Z AUTO 08007KT 050V120 CAVOK 26/10 Q1022 BECMG 32010KT
16:30
V
26 °C 10 km+ - 070° 070° 9 kt METAR LFMP 011430Z AUTO 07009KT 050V110 CAVOK 26/10 Q1022 TEMPO 32015G25KT
16:00
V
26 °C 10 km+ - 060° 060° 7 kt METAR LFMP 011400Z AUTO 06007KT 010V130 CAVOK 26/10 Q1022 TEMPO 32015G25KT
15:30
V
27 °C 10 km+ - 250° 250° 6 kt METAR LFMP 011330Z AUTO 25006KT 220V360 9999 FEW100 27/08 Q1022 TEMPO 32015G25KT
15:00
V
27 °C 10 km+ - 230° 230° 6 kt METAR LFMP 011300Z AUTO 23006KT 180V290 CAVOK 27/07 Q1022 TEMPO 32015G25KT
14:30
V
26 °C 10 km+ - 200° 200° 6 kt METAR LFMP 011230Z AUTO 20006KT 120V260 CAVOK 26/07 Q1022 TEMPO 32015G25KT
14:00
V
25 °C 10 km+ - 260° 260° 4 kt METAR LFMP 011200Z AUTO 26004KT 190V330 CAVOK 25/07 Q1023 TEMPO 32015G25KT
13:30
V
24 °C 10 km+ - 220° 220° 6 kt METAR LFMP 011130Z AUTO 22006KT 190V280 9999 FEW090 24/07 Q1023 TEMPO 32015G25KT
13:00
V
23 °C 10 km+ 9.400 ft 200° 200° 7 kt METAR LFMP 011100Z AUTO 20007KT 160V250 9999 BKN094 23/07 Q1023 TEMPO 32015G25KT
12:30
V
20 °C 10 km+ 9.600 ft 210° 210° 8 kt METAR LFMP 011030Z AUTO 21008KT 9999 BKN096 20/06 Q1023 TEMPO 32015G25KT
12:00
V
20 °C 10 km+ 10.000 ft 230° 230° 4 kt METAR LFMP 011000Z AUTO 23004KT 9999 BKN100 20/06 Q1023 BECMG 32010KT
11:30
V
18 °C 10 km+ 10.000 ft 230° 230° 4 kt METAR LFMP 010930Z AUTO 23004KT 9999 BKN100 18/05 Q1023 BECMG 32010KT
11:00
V
17 °C 10 km+ 11.000 ft 250° 250° 3 kt METAR LFMP 010900Z AUTO 25003KT 220V300 9999 FEW098 BKN110 17/05 Q1023 NOSIG
10:30
V
16 °C 10 km+ 9.800 ft 250° 250° 3 kt METAR LFMP 010830Z AUTO 25003KT 220V280 9999 BKN098 16/05 Q1023 NOSIG
10:00
V
15 °C 10 km+ 10.000 ft 240° 240° 5 kt METAR LFMP 010800Z AUTO 24005KT 210V270 9999 BKN100 15/04 Q1023 NOSIG
09:30
V
14 °C 10 km+ 10.000 ft 210° 210° 5 kt METAR LFMP 010730Z AUTO 21005KT 9999 BKN100 14/04 Q1022 NOSIG
09:00
V
13 °C 10 km+ 10.000 ft 230° 230° 4 kt METAR LFMP 010700Z AUTO 23004KT 190V270 9999 OVC100 13/04 Q1022 NOSIG
08:30
V
13 °C 10 km+ - 210° 210° 3 kt METAR LFMP 010630Z AUTO 21003KT 170V240 CAVOK 13/05 Q1022 NOSIG
08:00
V
12 °C 10 km+ - 250° 250° 6 kt METAR LFMP 010600Z AUTO 25006KT CAVOK 12/05 Q1021 NOSIG
07:30
V
11 °C 10 km+ - 200° 200° 5 kt METAR LFMP 010530Z AUTO 20005KT CAVOK 11/04 Q1021 NOSIG
07:00
V
10 °C 10 km+ - 230° 230° 4 kt METAR LFMP 010500Z AUTO 23004KT CAVOK 10/04 Q1021 NOSIG
06:30
V
11 °C 10 km+ - 200° 200° 5 kt METAR LFMP 010430Z AUTO 20005KT 170V230 CAVOK 11/05 Q1021 NOSIG
06:00
V
11 °C 10 km+ - 210° 210° 5 kt METAR LFMP 010400Z AUTO 21005KT CAVOK 11/06 Q1020 NOSIG
05:30
V
13 °C 10 km+ - 200° 200° 5 kt METAR LFMP 010330Z AUTO 20005KT 170V260 9999 FEW001 13/06 Q1020 NOSIG
05:00
V
15 °C 10 km+ - 300° 300° 9 kt METAR LFMP 010300Z AUTO 30009KT CAVOK 15/08 Q1020 NOSIG
04:30
V
15 °C 10 km+ - 300° 300° 10 kt METAR LFMP 010230Z AUTO 30010KT CAVOK 15/08 Q1020
04:00
V
15 °C 10 km+ - 300° 300° 10 kt METAR LFMP 010200Z AUTO 30010KT CAVOK 15/08 Q1020
03:30
V
15 °C 10 km+ - 230° 230° 7 kt METAR LFMP 010130Z AUTO 23007KT 210V270 CAVOK 15/08 Q1020
03:00
V
14 °C 10 km+ - 240° 240° 5 kt METAR LFMP 010100Z AUTO 24005KT CAVOK 14/08 Q1020
02:30
V
14 °C 10 km+ - 250° 250° 5 kt METAR LFMP 010030Z AUTO 25005KT 9999 FEW044 14/08 Q1019
02:00
V
14 °C 10 km+ - 240° 240° 4 kt METAR LFMP 010000Z AUTO 24004KT 9999 FEW046 14/07 Q1019
01:30
V
14 °C 10 km+ - 220° 220° 5 kt METAR LFMP 302330Z AUTO 22005KT CAVOK 14/07 Q1019
01:00
V
13 °C 10 km+ - 220° 220° 4 kt METAR LFMP 302300Z AUTO 22004KT 210V270 CAVOK 13/07 Q1019
00:30
V
13 °C 10 km+ - 250° 250° 3 kt METAR LFMP 302230Z AUTO 25003KT 230V300 CAVOK 13/07 Q1019
00:00
V
13 °C 10 km+ - 240° 240° 5 kt METAR LFMP 302200Z AUTO 24005KT CAVOK 13/07 Q1018

30 de setembro de 2022

Hora Código Clima Temp. Visibilidade Tecto Vento METAR/SPECI
23:30
V
14 °C 10 km+ - 230° 230° 4 kt METAR LFMP 302130Z AUTO 23004KT 200V260 CAVOK 14/07 Q1018 NOSIG
23:00
L
14 °C 10 km+ - 270° 270° 5 kt METAR LFMP 302100Z AUTO 27005KT 9999 VV/// 14/07 Q1018 BECMG NSC
22:30
V
15 °C 10 km+ - 290° 290° 6 kt METAR LFMP 302030Z AUTO 29006KT CAVOK 15/07 Q1018 NOSIG
22:00
V
16 °C 10 km+ - 280° 280° 7 kt METAR LFMP 302000Z AUTO 28007KT CAVOK 16/07 Q1017 BECMG 30020G37KT
21:30
V
16 °C 10 km+ - 290° 290° 6 kt METAR LFMP 301930Z AUTO 29006KT 270V330 9999 FEW001 16/07 Q1017 BECMG 30020G37KT
21:00
V
16 °C 10 km+ - 290° 290° 6 kt METAR LFMP 301900Z AUTO 29006KT CAVOK 16/07 Q1016 BECMG 30020G37KT
20:30
V
17 °C 10 km+ - 300° 300° 11 kt METAR LFMP 301830Z AUTO 30011KT CAVOK 17/07 Q1016 BECMG 30020G37KT
20:00
V
18 °C 10 km+ - 300° 300° 11 kt METAR LFMP 301800Z AUTO 30011KT CAVOK 18/07 Q1016 BECMG 30020G37KT
19:30
V
18 °C 10 km+ - 310° 310° 9 kt METAR LFMP 301730Z AUTO 31009KT 9999 FEW054 18/07 Q1015 BECMG 30020G37KT
19:00
V
18 °C 10 km+ - 320° 320° 7 kt METAR LFMP 301700Z AUTO 32007KT 9999 FEW052 18/08 Q1014 BECMG 30020G37KT
18:30
V
19 °C 10 km+ - 310° 310° 14 kt METAR LFMP 301630Z AUTO 31014KT 9999 FEW001 19/07 Q1014 BECMG 30020G37KT
18:00
V
19 °C 10 km+ - 300° 300° 15 - 28 kt METAR LFMP 301600Z AUTO 30015G28KT 280V340 9999 FEW078 19/07 Q1013 NOSIG
17:30
V
19 °C 10 km+ - 300° 300° 17 kt METAR LFMP 301530Z AUTO 30017KT 280V340 9999 FEW054 19/07 Q1013 BECMG 30020G37KT
17:00
V
19 °C 10 km+ - 300° 300° 16 kt METAR LFMP 301500Z AUTO 30016KT 280V350 9999 FEW049 19/07 Q1013 BECMG 30020G37KT
16:30
V
19 °C 10 km+ - 300° 300° 18 kt METAR LFMP 301430Z AUTO 30018KT 9999 FEW049 19/07 Q1013 BECMG 30020G37KT
16:00
V
19 °C 10 km+ - 310° 310° 18 kt METAR LFMP 301400Z AUTO 31018KT 9999 FEW049 SCT068 19/07 Q1013 TEMPO 32025G40KT
15:30
V
18 °C 10 km+ - 300° 300° 17 - 29 kt METAR LFMP 301330Z AUTO 30017G29KT 9999 FEW048 18/08 Q1013 TEMPO 32025G40KT
15:00
V
18 °C 10 km+ - 310° 310° 16 kt METAR LFMP 301300Z AUTO 31016KT 9999 SCT046 SCT058 18/08 Q1013 TEMPO 32025G40KT
14:30
V
19 °C 10 km+ 21.000 ft 290° 290° 22 kt METAR LFMP 301230Z AUTO 29022KT 9999 SCT046 SCT052 BKN210 19/08 Q1012 TEMPO 32025G40KT
14:00
V
18 °C 10 km+ - 300° 300° 19 kt METAR LFMP 301200Z AUTO 30019KT 9999 FEW001 SCT044 18/08 Q1012 TEMPO 32025G40KT
13:30
V
18 °C 10 km+ - 310° 310° 18 kt METAR LFMP 301130Z AUTO 31018KT 9999 FEW042 18/07 Q1012 TEMPO 32025G40KT
13:00
V
18 °C 10 km+ - 310° 310° 21 kt METAR LFMP 301100Z AUTO 31021KT CAVOK 18/07 Q1012 BECMG 32020G35KT
12:30
V
17 °C 10 km+ - 310° 310° 20 - 31 kt METAR LFMP 301030Z AUTO 31020G31KT 9999 FEW040 17/08 Q1011 NOSIG
12:00
V
17 °C 10 km+ 19.000 ft 290° 290° 20 kt METAR LFMP 301000Z AUTO 29020KT 9999 SCT039/// SCT100/// BKN190/// //////TCU 17/08 Q1012 BECMG 32020G35KT FEW040 BKN070
11:30
V
17 °C 10 km+ 10.000 ft 300° 300° 17 kt METAR LFMP 300930Z AUTO 30017KT 9999 FEW037 BKN100 BKN120 17/08 Q1012 BECMG 32020G35KT
11:00
V
15 °C 10 km+ 9.400 ft 300° 300° 17 kt METAR LFMP 300900Z AUTO 30017KT 9999 BKN094 15/08 Q1012 BECMG 32020G35KT
10:30
V
15 °C 10 km+ 7.000 ft 300° 300° 14 kt METAR LFMP 300830Z AUTO 30014KT 270V330 9999 -RA FEW039 BKN070 BKN090 15/09 Q1011 BECMG 32020G35KT
10:00
V
16 °C 10 km+ 9.400 ft 300° 300° 19 - 29 kt METAR LFMP 300800Z AUTO 30019G29KT 9999 FEW040/// SCT072/// BKN094/// ///TCU 16/08 Q1011 BECMG FEW030 BKN120
09:30
V
15 °C 10 km+ - 310° 310° 13 kt METAR LFMP 300730Z AUTO 31013KT 9999 FEW070/// //////TCU 15/07 Q1010 BECMG 32015G25KT FEW030 BKN120
09:00
V
14 °C 10 km+ - 300° 300° 11 kt METAR LFMP 300700Z AUTO 30011KT 9999 FEW100 14/08 Q1010 BECMG 32015G25KT
08:30
V
14 °C 10 km+ - 290° 290° 12 kt METAR LFMP 300630Z AUTO 29012KT 9999 SCT100 14/08 Q1009 BECMG 32015G25KT
08:00
V
14 °C 10 km+ - 300° 300° 13 kt METAR LFMP 300600Z AUTO 30013KT CAVOK 14/08 Q1009 BECMG 32015G25KT
07:30
V
14 °C 10 km+ - 300° 300° 12 kt METAR LFMP 300530Z AUTO 30012KT 9999 FEW036 14/08 Q1008 BECMG 32015G25KT
07:00
V
13 °C 10 km+ - 270° 270° 7 kt METAR LFMP 300500Z AUTO 27007KT 240V300 9999 FEW037 13/08 Q1008 BECMG 32015G25KT
06:30
V
14 °C 10 km+ - 290° 290° 9 kt METAR LFMP 300430Z AUTO 29009KT 9999 FEW034 14/08 Q1008 BECMG 32015G25KT
06:00
V
14 °C 10 km+ 15.000 ft 290° 290° 7 kt METAR LFMP 300400Z AUTO 29007KT 250V010 9999 FEW037 BKN150 14/08 Q1007 BECMG 32015G25KT
05:30
V
15 °C 10 km+ 15.000 ft 310° 310° 10 kt METAR LFMP 300330Z AUTO 31010KT 280V340 9999 FEW039 BKN150 BKN170 15/08 Q1007 BECMG 32015G25KT
05:00
V
14 °C 10 km+ 19.000 ft 280° 280° 9 kt METAR LFMP 300300Z AUTO 28009KT 9999 FEW033 SCT170 BKN190 14/09 Q1007 BECMG 32015G25KT
04:30
V
15 °C 10 km+ - 300° 300° 11 kt METAR LFMP 300230Z AUTO 30011KT 260V330 CAVOK 15/09 Q1007
04:00
V
15 °C 10 km+ - 290° 290° 10 kt METAR LFMP 300200Z AUTO 29010KT 260V320 CAVOK 15/09 Q1006
03:30
V
15 °C 10 km+ - 290° 290° 12 kt METAR LFMP 300130Z AUTO 29012KT CAVOK 15/09 Q1006
03:00
V
14 °C 10 km+ - 300° 300° 9 kt METAR LFMP 300100Z AUTO 30009KT CAVOK 14/09 Q1006
02:30
V
14 °C 10 km+ 11.000 ft 290° 290° 9 kt METAR LFMP 300030Z AUTO 29009KT 9999 FEW035 BKN110 OVC120 14/09 Q1006
02:00
V
15 °C 10 km+ 10.000 ft 300° 300° 9 kt METAR LFMP 300000Z AUTO 30009KT 270V330 9999 OVC100 15/09 Q1006
01:30
V
15 °C 10 km+ 10.000 ft 310° 310° 10 kt METAR LFMP 292330Z AUTO 31010KT 9999 BKN100 BKN120 15/09 Q1006
01:00
V
15 °C 10 km+ 9.800 ft 300° 300° 10 kt METAR LFMP 292300Z AUTO 30010KT 9999 FEW052 OVC098 15/09 Q1006
00:30
V
15 °C 10 km+ 8.800 ft 300° 300° 9 kt METAR LFMP 292230Z AUTO 30009KT 9999 FEW066 BKN088 OVC110 15/09 Q1006
00:00
V
15 °C 10 km+ 7.800 ft 290° 290° 9 kt METAR LFMP 292200Z AUTO 29009KT 9999 OVC078 15/10 Q1006 TEMPO SCT040CB BKN060 BECMG 32015G25KT

29 de setembro de 2022

Hora Código Clima Temp. Visibilidade Tecto Vento METAR/SPECI
23:30
V
14 °C 10 km+ 7.800 ft 270° 270° 5 kt METAR LFMP 292130Z AUTO 27005KT 220V290 9999 -RA BKN078 OVC090 14/11 Q1006 TEMPO SCT040CB BKN060 BECMG 32015G25KT
23:00
V
14 °C 10 km+ 8.000 ft 290° 290° 8 kt METAR LFMP 292100Z AUTO 29008KT 9999 -RA BKN080 OVC098 14/11 Q1006 TEMPO SCT040CB BKN060 BECMG 32015G25KT
22:30
V
15 °C 10 km+ 7.800 ft 310° 310° 8 kt METAR LFMP 292030Z AUTO 31008KT 9999 -RA FEW064/// BKN078/// OVC094/// ///TCU 15/11 Q1005 TEMPO SCT040CB BKN060 BECMG 32015G25KT
22:00
V
16 °C 10 km+ 5.800 ft 300° 300° 5 kt METAR LFMP 292000Z AUTO 30005KT 270V340 9999 -RA FEW048 BKN058 BKN074 16/10 Q1005 TEMPO SCT040CB BKN060 BECMG 32015G25KT
21:30
V
16 °C 10 km+ 5.000 ft 320° 320° 9 kt METAR LFMP 291930Z AUTO 32009KT 9999 BKN050 BKN064 BKN076 16/10 Q1004 TEMPO SCT040CB BKN060 BECMG 32015G25KT
21:00
V
15 °C 10 km+ 9.200 ft 250° 250° 6 kt METAR LFMP 291900Z AUTO 25006KT 9999 FEW049/// BKN092/// OVC160/// ///CB 15/12 Q1004 BECMG 32015G25KT
20:30
V
15 °C 10 km+ 7.800 ft 230° 230° 6 kt METAR LFMP 291830Z AUTO 23006KT 9999 OVC078/// //////CB 15/13 Q1004 BECMG 32015G25KT
20:00
V
15 °C 10 km+ 7.000 ft 220° 220° 9 kt METAR LFMP 291800Z AUTO 22009KT 190V250 9999 SCT052/// OVC070/// //////CB 15/13 Q1004 BECMG 32015G25KT
19:30
V
15 °C 10 km+ 7.400 ft 220° 220° 9 kt METAR LFMP 291730Z AUTO 22009KT 9999 FEW058/// OVC074/// //////CB 15/12 Q1003 BECMG 32015G25KT
19:00
V
16 °C 10 km+ 7.200 ft 210° 210° 7 kt METAR LFMP 291700Z AUTO 21007KT 190V250 9999 SCT056/// OVC072/// ///CB 16/12 Q1003 BECMG 32015G25KT
18:30
V
16 °C 10 km+ 5.200 ft 200° 200° 7 kt METAR LFMP 291630Z AUTO 20007KT 9999 BKN052/// BKN064/// //////CB 16/12 Q1003 BECMG 32015G25KT
18:00
V
17 °C 10 km+ 6.000 ft 200° 200° 9 kt METAR LFMP 291600Z AUTO 20009KT 170V230 9999 -RA OVC060/// //////CB 17/12 Q1003 BECMG 32015G25KT
17:30
V
17 °C 10 km+ 5.800 ft 190° 190° 8 kt METAR LFMP 291530Z AUTO 19008KT 160V220 9999 BKN058/// BKN090/// //////TCU 17/11 Q1002 TEMPO SCT040CB BKN060 BECMG 32015G25KT
17:00
V
18 °C 10 km+ 7.800 ft 180° 180° 10 kt METAR LFMP 291500Z AUTO 18010KT 120V210 9999 SCT062/// BKN078/// BKN088/// ///TCU 18/11 Q1002 TEMPO SCT040CB BKN060 BECMG 32015G25KT
Dados mais antigos

Nós e terceiros acompanhamos seu comportamento na internet em nosso site com cookies. Se você continuar, nós assumimos que você concorda com nossa política de cookies. Saiba mais